sensor_id;sensor_type;location;lat;lon;timestamp;pressure;altitude;pressure_sealevel;temperature;humidity
63554;BME280;49699;48.072;7.800;2022-07-23T00:00:51;99433.97;;;23.04;62.42
63554;BME280;49699;48.072;7.800;2022-07-23T00:03:16;99404.28;;;23.00;62.67
63554;BME280;49699;48.072;7.800;2022-07-23T00:05:42;99387.34;;;23.01;62.40
63554;BME280;49699;48.072;7.800;2022-07-23T00:08:07;99380.22;;;23.02;62.33
63554;BME280;49699;48.072;7.800;2022-07-23T00:10:33;99397.81;;;23.03;62.28
63554;BME280;49699;48.072;7.800;2022-07-23T00:12:58;99415.53;;;23.02;62.17
63554;BME280;49699;48.072;7.800;2022-07-23T00:15:24;99417.69;;;22.99;62.46
63554;BME280;49699;48.072;7.800;2022-07-23T00:17:50;99399.63;;;22.94;62.77
63554;BME280;49699;48.072;7.800;2022-07-23T00:20:16;99385.53;;;22.94;62.71
63554;BME280;49699;48.072;7.800;2022-07-23T00:22:48;99374.06;;;22.93;62.94
63554;BME280;49699;48.072;7.800;2022-07-23T00:25:14;99382.03;;;22.93;62.84
63554;BME280;49699;48.072;7.800;2022-07-23T00:27:40;99362.84;;;22.91;63.13
63554;BME280;49699;48.072;7.800;2022-07-23T00:30:06;99351.72;;;22.88;63.29
63554;BME280;49699;48.072;7.800;2022-07-23T00:32:31;99345.41;;;22.80;63.46
63554;BME280;49699;48.072;7.800;2022-07-23T00:34:57;99339.59;;;22.69;63.87
63554;BME280;49699;48.072;7.800;2022-07-23T00:37:22;99320.72;;;22.56;64.39
63554;BME280;49699;48.072;7.800;2022-07-23T00:39:48;99318.06;;;22.47;64.47
63554;BME280;49699;48.072;7.800;2022-07-23T00:42:13;99317.25;;;22.47;64.28
63554;BME280;49699;48.072;7.800;2022-07-23T00:44:38;99327.19;;;22.45;64.03
63554;BME280;49699;48.072;7.800;2022-07-23T00:47:04;99316.09;;;22.41;63.88
63554;BME280;49699;48.072;7.800;2022-07-23T00:49:31;99302.00;;;22.41;63.72
63554;BME280;49699;48.072;7.800;2022-07-23T00:51:57;99305.31;;;22.43;63.46
63554;BME280;49699;48.072;7.800;2022-07-23T00:54:26;99303.81;;;22.48;62.58
63554;BME280;49699;48.072;7.800;2022-07-23T00:56:52;99303.66;;;22.50;62.44
63554;BME280;49699;48.072;7.800;2022-07-23T00:59:17;99306.66;;;22.55;61.99
63554;BME280;49699;48.072;7.800;2022-07-23T01:01:43;99312.25;;;22.60;61.77
63554;BME280;49699;48.072;7.800;2022-07-23T01:04:14;99324.53;;;22.61;62.07
63554;BME280;49699;48.072;7.800;2022-07-23T01:06:40;99319.25;;;22.53;63.26
63554;BME280;49699;48.072;7.800;2022-07-23T01:09:07;99333.34;;;22.37;64.70
63554;BME280;49699;48.072;7.800;2022-07-23T01:11:34;99342.44;;;22.19;65.70
63554;BME280;49699;48.072;7.800;2022-07-23T01:14:16;99329.34;;;22.01;66.47
63554;BME280;49699;48.072;7.800;2022-07-23T01:16:42;99326.13;;;21.89;67.00
63554;BME280;49699;48.072;7.800;2022-07-23T01:19:09;99317.81;;;21.76;67.63
63554;BME280;49699;48.072;7.800;2022-07-23T01:22:03;99302.41;;;21.71;68.32
63554;BME280;49699;48.072;7.800;2022-07-23T01:24:30;99306.41;;;21.67;68.77
63554;BME280;49699;48.072;7.800;2022-07-23T01:27:02;99312.00;;;21.64;69.60
63554;BME280;49699;48.072;7.800;2022-07-23T01:29:28;99313.97;;;21.54;70.01
63554;BME280;49699;48.072;7.800;2022-07-23T01:31:56;99314.63;;;21.48;70.53
63554;BME280;49699;48.072;7.800;2022-07-23T01:34:21;99343.03;;;21.38;70.77
63554;BME280;49699;48.072;7.800;2022-07-23T01:36:47;99337.72;;;21.30;71.18
63554;BME280;49699;48.072;7.800;2022-07-23T01:39:15;99327.13;;;21.30;71.15
63554;BME280;49699;48.072;7.800;2022-07-23T01:41:40;99323.66;;;21.29;71.35
63554;BME280;49699;48.072;7.800;2022-07-23T01:44:06;99338.34;;;21.24;71.70
63554;BME280;49699;48.072;7.800;2022-07-23T01:46:32;99340.06;;;21.15;71.99
63554;BME280;49699;48.072;7.800;2022-07-23T01:48:58;99343.38;;;21.09;72.33
63554;BME280;49699;48.072;7.800;2022-07-23T01:51:43;99328.47;;;21.08;72.31
63554;BME280;49699;48.072;7.800;2022-07-23T01:54:26;99350.31;;;21.10;72.41
63554;BME280;49699;48.072;7.800;2022-07-23T01:56:51;99344.72;;;21.13;72.28
63554;BME280;49699;48.072;7.800;2022-07-23T01:59:17;99341.88;;;21.14;72.67
63554;BME280;49699;48.072;7.800;2022-07-23T02:01:42;99361.44;;;21.13;72.46
63554;BME280;49699;48.072;7.800;2022-07-23T02:04:08;99367.03;;;21.10;72.59
63554;BME280;49699;48.072;7.800;2022-07-23T02:06:33;99374.91;;;21.02;72.95
63554;BME280;49699;48.072;7.800;2022-07-23T02:08:59;99381.34;;;21.00;72.80
63554;BME280;49699;48.072;7.800;2022-07-23T02:11:24;99386.94;;;20.97;73.05
63554;BME280;49699;48.072;7.800;2022-07-23T02:13:49;99391.41;;;20.96;72.99
63554;BME280;49699;48.072;7.800;2022-07-23T02:16:15;99390.09;;;21.00;73.04
63554;BME280;49699;48.072;7.800;2022-07-23T02:18:40;99375.75;;;21.03;72.72
63554;BME280;49699;48.072;7.800;2022-07-23T02:21:06;99364.69;;;21.07;72.64
63554;BME280;49699;48.072;7.800;2022-07-23T02:23:31;99372.31;;;21.10;72.50
63554;BME280;49699;48.072;7.800;2022-07-23T02:25:56;99381.59;;;21.14;72.07
63554;BME280;49699;48.072;7.800;2022-07-23T02:28:22;99388.38;;;21.17;72.15
63554;BME280;49699;48.072;7.800;2022-07-23T02:30:47;99382.66;;;21.22;71.84
63554;BME280;49699;48.072;7.800;2022-07-23T02:33:12;99382.34;;;21.25;71.81
63554;BME280;49699;48.072;7.800;2022-07-23T02:35:39;99387.66;;;21.25;71.45
63554;BME280;49699;48.072;7.800;2022-07-23T02:38:06;99385.00;;;21.25;71.56
63554;BME280;49699;48.072;7.800;2022-07-23T02:40:31;99385.97;;;21.24;71.55
63554;BME280;49699;48.072;7.800;2022-07-23T02:42:57;99392.56;;;21.20;71.90
63554;BME280;49699;48.072;7.800;2022-07-23T02:45:23;99407.41;;;21.12;72.05
63554;BME280;49699;48.072;7.800;2022-07-23T02:47:49;99403.25;;;21.10;72.20
63554;BME280;49699;48.072;7.800;2022-07-23T02:50:14;99409.00;;;21.05;72.17
63554;BME280;49699;48.072;7.800;2022-07-23T02:52:40;99398.53;;;20.96;72.45
63554;BME280;49699;48.072;7.800;2022-07-23T02:55:06;99394.38;;;20.93;72.69
63554;BME280;49699;48.072;7.800;2022-07-23T02:57:32;99387.13;;;20.95;72.66
63554;BME280;49699;48.072;7.800;2022-07-23T02:59:57;99388.59;;;20.98;72.64
63554;BME280;49699;48.072;7.800;2022-07-23T03:02:23;99411.22;;;20.92;73.16
63554;BME280;49699;48.072;7.800;2022-07-23T03:04:49;99432.31;;;20.84;73.41
63554;BME280;49699;48.072;7.800;2022-07-23T03:07:16;99431.28;;;20.77;73.64
63554;BME280;49699;48.072;7.800;2022-07-23T03:09:42;99417.84;;;20.70;73.84
63554;BME280;49699;48.072;7.800;2022-07-23T03:12:07;99413.22;;;20.72;73.96
63554;BME280;49699;48.072;7.800;2022-07-23T03:14:33;99408.38;;;20.68;74.24
63554;BME280;49699;48.072;7.800;2022-07-23T03:16:58;99413.00;;;20.66;74.41
63554;BME280;49699;48.072;7.800;2022-07-23T03:19:25;99418.97;;;20.68;74.36
63554;BME280;49699;48.072;7.800;2022-07-23T03:21:51;99422.91;;;20.64;74.75
63554;BME280;49699;48.072;7.800;2022-07-23T03:24:16;99441.06;;;20.59;75.07
63554;BME280;49699;48.072;7.800;2022-07-23T03:26:43;99444.00;;;20.56;75.27
63554;BME280;49699;48.072;7.800;2022-07-23T03:29:09;99469.47;;;20.57;75.19
63554;BME280;49699;48.072;7.800;2022-07-23T03:31:35;99476.72;;;20.55;75.19
63554;BME280;49699;48.072;7.800;2022-07-23T03:34:00;99479.34;;;20.55;75.33
63554;BME280;49699;48.072;7.800;2022-07-23T03:36:26;99465.69;;;20.59;74.95
63554;BME280;49699;48.072;7.800;2022-07-23T03:38:54;99464.06;;;20.66;74.87
63554;BME280;49699;48.072;7.800;2022-07-23T03:41:20;99471.03;;;20.67;75.30
63554;BME280;49699;48.072;7.800;2022-07-23T03:43:46;99461.59;;;20.65;75.15
63554;BME280;49699;48.072;7.800;2022-07-23T03:46:12;99466.03;;;20.64;75.43
63554;BME280;49699;48.072;7.800;2022-07-23T03:48:38;99474.28;;;20.61;75.39
63554;BME280;49699;48.072;7.800;2022-07-23T03:51:03;99485.03;;;20.60;75.42
63554;BME280;49699;48.072;7.800;2022-07-23T03:53:29;99492.78;;;20.61;75.58
63554;BME280;49699;48.072;7.800;2022-07-23T03:55:55;99496.94;;;20.64;75.46
63554;BME280;49699;48.072;7.800;2022-07-23T03:58:21;99490.38;;;20.68;75.29
63554;BME280;49699;48.072;7.800;2022-07-23T04:00:47;99492.44;;;20.74;75.17
63554;BME280;49699;48.072;7.800;2022-07-23T04:03:12;99484.84;;;20.79;74.90
63554;BME280;49699;48.072;7.800;2022-07-23T04:05:37;99472.69;;;20.86;74.76
63554;BME280;49699;48.072;7.800;2022-07-23T04:08:05;99452.34;;;20.87;74.82
63554;BME280;49699;48.072;7.800;2022-07-23T04:10:32;99440.56;;;20.81;75.13
63554;BME280;49699;48.072;7.800;2022-07-23T04:12:58;99429.47;;;20.77;75.38
63554;BME280;49699;48.072;7.800;2022-07-23T04:15:23;99437.09;;;20.80;75.46
63554;BME280;49699;48.072;7.800;2022-07-23T04:17:48;99450.16;;;20.82;75.36
63554;BME280;49699;48.072;7.800;2022-07-23T04:20:17;99446.53;;;20.83;75.23
63554;BME280;49699;48.072;7.800;2022-07-23T04:22:48;99448.34;;;20.83;75.35
63554;BME280;49699;48.072;7.800;2022-07-23T04:25:13;99454.47;;;20.83;75.52
63554;BME280;49699;48.072;7.800;2022-07-23T04:27:42;99458.63;;;20.86;75.42
63554;BME280;49699;48.072;7.800;2022-07-23T04:30:08;99469.88;;;20.88;75.46
63554;BME280;49699;48.072;7.800;2022-07-23T04:32:34;99483.13;;;20.88;75.61
63554;BME280;49699;48.072;7.800;2022-07-23T04:35:01;99483.94;;;20.88;75.43
63554;BME280;49699;48.072;7.800;2022-07-23T04:37:27;99481.84;;;20.92;75.49
63554;BME280;49699;48.072;7.800;2022-07-23T04:39:53;99492.13;;;20.95;75.22
63554;BME280;49699;48.072;7.800;2022-07-23T04:42:18;99483.53;;;21.01;75.19
63554;BME280;49699;48.072;7.800;2022-07-23T04:44:43;99481.28;;;21.06;74.94
63554;BME280;49699;48.072;7.800;2022-07-23T04:47:09;99478.47;;;21.07;75.16
63554;BME280;49699;48.072;7.800;2022-07-23T04:49:35;99472.06;;;21.10;75.06
63554;BME280;49699;48.072;7.800;2022-07-23T04:52:01;99481.66;;;21.11;74.86
63554;BME280;49699;48.072;7.800;2022-07-23T04:54:28;99470.91;;;21.12;74.90
63554;BME280;49699;48.072;7.800;2022-07-23T04:56:53;99482.69;;;21.18;74.68
63554;BME280;49699;48.072;7.800;2022-07-23T04:59:19;99479.03;;;21.19;74.58
63554;BME280;49699;48.072;7.800;2022-07-23T05:01:47;99477.38;;;21.18;74.64
63554;BME280;49699;48.072;7.800;2022-07-23T05:04:13;99477.53;;;21.17;74.83
63554;BME280;49699;48.072;7.800;2022-07-23T05:06:40;99465.97;;;21.18;74.71
63554;BME280;49699;48.072;7.800;2022-07-23T05:09:05;99470.56;;;21.15;74.71
63554;BME280;49699;48.072;7.800;2022-07-23T05:11:31;99474.06;;;21.16;74.61
63554;BME280;49699;48.072;7.800;2022-07-23T05:13:56;99481.69;;;21.19;74.67
63554;BME280;49699;48.072;7.800;2022-07-23T05:16:22;99485.59;;;21.25;74.44
63554;BME280;49699;48.072;7.800;2022-07-23T05:18:48;99470.22;;;21.28;74.49
63554;BME280;49699;48.072;7.800;2022-07-23T05:21:14;99476.00;;;21.32;74.33
63554;BME280;49699;48.072;7.800;2022-07-23T05:23:40;99476.53;;;21.35;74.31
63554;BME280;49699;48.072;7.800;2022-07-23T05:26:06;99468.81;;;21.42;74.11
63554;BME280;49699;48.072;7.800;2022-07-23T05:28:31;99471.16;;;21.45;74.36
63554;BME280;49699;48.072;7.800;2022-07-23T05:30:57;99468.34;;;21.46;74.22
63554;BME280;49699;48.072;7.800;2022-07-23T05:33:23;99472.66;;;21.47;74.16
63554;BME280;49699;48.072;7.800;2022-07-23T05:35:49;99471.69;;;21.48;73.98
63554;BME280;49699;48.072;7.800;2022-07-23T05:38:21;99480.09;;;21.52;74.06
63554;BME280;49699;48.072;7.800;2022-07-23T05:40:47;99479.50;;;21.58;73.72
63554;BME280;49699;48.072;7.800;2022-07-23T05:43:13;99477.72;;;21.67;73.35
63554;BME280;49699;48.072;7.800;2022-07-23T05:45:38;99483.22;;;21.73;73.29
63554;BME280;49699;48.072;7.800;2022-07-23T05:48:04;99488.03;;;21.78;73.24
63554;BME280;49699;48.072;7.800;2022-07-23T05:50:35;99488.41;;;21.83;72.96
63554;BME280;49699;48.072;7.800;2022-07-23T05:53:09;99490.56;;;21.88;72.86
63554;BME280;49699;48.072;7.800;2022-07-23T05:55:57;99497.34;;;21.90;72.65
63554;BME280;49699;48.072;7.800;2022-07-23T05:58:22;99494.41;;;21.93;72.68
63554;BME280;49699;48.072;7.800;2022-07-23T06:00:47;99500.53;;;21.94;72.77
63554;BME280;49699;48.072;7.800;2022-07-23T06:03:14;99499.22;;;21.98;72.58
63554;BME280;49699;48.072;7.800;2022-07-23T06:05:39;99497.72;;;21.95;72.64
63554;BME280;49699;48.072;7.800;2022-07-23T06:08:05;99509.31;;;21.94;72.77
63554;BME280;49699;48.072;7.800;2022-07-23T06:10:30;99514.59;;;21.94;72.85
63554;BME280;49699;48.072;7.800;2022-07-23T06:12:56;99524.75;;;21.99;72.76
63554;BME280;49699;48.072;7.800;2022-07-23T06:15:23;99515.34;;;22.04;72.49
63554;BME280;49699;48.072;7.800;2022-07-23T06:17:48;99523.81;;;22.08;72.57
63554;BME280;49699;48.072;7.800;2022-07-23T06:20:14;99512.06;;;22.10;72.50
63554;BME280;49699;48.072;7.800;2022-07-23T06:22:40;99522.84;;;22.17;72.48
63554;BME280;49699;48.072;7.800;2022-07-23T06:25:06;99509.63;;;22.25;71.94
63554;BME280;49699;48.072;7.800;2022-07-23T06:27:32;99519.78;;;22.38;71.54
63554;BME280;49699;48.072;7.800;2022-07-23T06:29:57;99523.44;;;22.45;71.39
63554;BME280;49699;48.072;7.800;2022-07-23T06:32:23;99520.47;;;22.48;71.15
63554;BME280;49699;48.072;7.800;2022-07-23T06:34:48;99522.63;;;22.52;70.69
63554;BME280;49699;48.072;7.800;2022-07-23T06:37:14;99532.25;;;22.62;70.27
63554;BME280;49699;48.072;7.800;2022-07-23T06:39:39;99526.97;;;22.70;70.36
63554;BME280;49699;48.072;7.800;2022-07-23T06:42:05;99524.47;;;22.76;70.03
63554;BME280;49699;48.072;7.800;2022-07-23T06:44:38;99532.50;;;22.84;69.65
63554;BME280;49699;48.072;7.800;2022-07-23T06:47:06;99530.84;;;22.92;69.54
63554;BME280;49699;48.072;7.800;2022-07-23T06:49:32;99536.47;;;22.97;69.35
63554;BME280;49699;48.072;7.800;2022-07-23T06:51:57;99539.63;;;23.00;69.07
63554;BME280;49699;48.072;7.800;2022-07-23T06:54:22;99536.16;;;23.08;68.89
63554;BME280;49699;48.072;7.800;2022-07-23T06:56:48;99537.97;;;23.15;68.74
63554;BME280;49699;48.072;7.800;2022-07-23T06:59:14;99549.75;;;23.29;68.13
63554;BME280;49699;48.072;7.800;2022-07-23T07:01:39;99548.94;;;23.45;67.63
63554;BME280;49699;48.072;7.800;2022-07-23T07:04:05;99551.75;;;23.60;67.00
63554;BME280;49699;48.072;7.800;2022-07-23T07:06:30;99547.56;;;23.73;66.55
63554;BME280;49699;48.072;7.800;2022-07-23T07:08:56;99546.56;;;23.82;66.03
63554;BME280;49699;48.072;7.800;2022-07-23T07:11:21;99556.50;;;23.88;65.53
63554;BME280;49699;48.072;7.800;2022-07-23T07:13:49;99550.34;;;23.88;65.38
63554;BME280;49699;48.072;7.800;2022-07-23T07:16:14;99554.16;;;23.94;65.25
63554;BME280;49699;48.072;7.800;2022-07-23T07:18:39;99544.50;;;24.01;65.10
63554;BME280;49699;48.072;7.800;2022-07-23T07:21:05;99546.81;;;24.04;64.92
63554;BME280;49699;48.072;7.800;2022-07-23T07:23:30;99548.31;;;24.06;64.52
63554;BME280;49699;48.072;7.800;2022-07-23T07:25:56;99553.06;;;24.19;63.98
63554;BME280;49699;48.072;7.800;2022-07-23T07:28:21;99552.56;;;24.32;63.21
63554;BME280;49699;48.072;7.800;2022-07-23T07:30:46;99557.53;;;24.35;63.18
63554;BME280;49699;48.072;7.800;2022-07-23T07:33:12;99568.63;;;24.38;63.08
63554;BME280;49699;48.072;7.800;2022-07-23T07:35:37;99575.28;;;24.42;62.90
63554;BME280;49699;48.072;7.800;2022-07-23T07:38:03;99578.75;;;24.43;62.87
63554;BME280;49699;48.072;7.800;2022-07-23T07:40:28;99575.28;;;24.42;62.95
63554;BME280;49699;48.072;7.800;2022-07-23T07:42:54;99578.94;;;24.41;63.00
63554;BME280;49699;48.072;7.800;2022-07-23T07:45:23;99574.63;;;24.40;62.95
63554;BME280;49699;48.072;7.800;2022-07-23T07:47:50;99579.09;;;24.48;62.77
63554;BME280;49699;48.072;7.800;2022-07-23T07:50:26;99574.31;;;24.66;62.23
63554;BME280;49699;48.072;7.800;2022-07-23T07:52:51;99586.19;;;24.86;61.59
63554;BME280;49699;48.072;7.800;2022-07-23T07:55:18;99579.66;;;24.97;61.31
63554;BME280;49699;48.072;7.800;2022-07-23T07:57:43;99578.28;;;25.01;61.10
63554;BME280;49699;48.072;7.800;2022-07-23T08:00:10;99576.22;;;25.11;60.81
63554;BME280;49699;48.072;7.800;2022-07-23T08:02:50;99581.56;;;25.26;60.39
63554;BME280;49699;48.072;7.800;2022-07-23T08:05:23;99577.59;;;25.45;60.04
63554;BME280;49699;48.072;7.800;2022-07-23T08:07:49;99581.50;;;25.57;59.71
63554;BME280;49699;48.072;7.800;2022-07-23T08:10:15;99580.72;;;25.71;59.19
63554;BME280;49699;48.072;7.800;2022-07-23T08:12:46;99582.38;;;25.87;58.75
63554;BME280;49699;48.072;7.800;2022-07-23T08:15:13;99583.22;;;26.02;57.92
63554;BME280;49699;48.072;7.800;2022-07-23T08:17:39;99573.31;;;26.11;57.96
63554;BME280;49699;48.072;7.800;2022-07-23T08:20:06;99566.84;;;26.20;57.70
63554;BME280;49699;48.072;7.800;2022-07-23T08:25:10;99572.28;;;26.26;57.13
63554;BME280;49699;48.072;7.800;2022-07-23T08:27:35;99565.66;;;26.37;56.62
63554;BME280;49699;48.072;7.800;2022-07-23T08:30:01;99564.19;;;26.49;56.20
63554;BME280;49699;48.072;7.800;2022-07-23T08:32:26;99567.53;;;26.58;55.72
63554;BME280;49699;48.072;7.800;2022-07-23T08:34:52;99567.53;;;26.58;55.41
63554;BME280;49699;48.072;7.800;2022-07-23T08:37:17;99573.34;;;26.61;55.49
63554;BME280;49699;48.072;7.800;2022-07-23T08:39:42;99580.78;;;26.66;54.68
63554;BME280;49699;48.072;7.800;2022-07-23T08:42:08;99586.56;;;26.70;54.52
63554;BME280;49699;48.072;7.800;2022-07-23T08:44:35;99596.22;;;26.71;54.32
63554;BME280;49699;48.072;7.800;2022-07-23T08:47:01;99591.16;;;26.76;54.06
63554;BME280;49699;48.072;7.800;2022-07-23T08:49:28;99583.03;;;26.84;53.83
63554;BME280;49699;48.072;7.800;2022-07-23T08:51:55;99599.41;;;26.95;53.44
63554;BME280;49699;48.072;7.800;2022-07-23T08:54:21;99588.16;;;27.00;52.96
63554;BME280;49699;48.072;7.800;2022-07-23T08:56:48;99592.34;;;27.09;52.53
63554;BME280;49699;48.072;7.800;2022-07-23T08:59:13;99592.53;;;27.29;52.12
63554;BME280;49699;48.072;7.800;2022-07-23T09:01:39;99583.31;;;27.53;51.18
63554;BME280;49699;48.072;7.800;2022-07-23T09:04:05;99576.63;;;27.63;50.52
63554;BME280;49699;48.072;7.800;2022-07-23T09:06:30;99574.50;;;27.59;50.06
63554;BME280;49699;48.072;7.800;2022-07-23T09:08:56;99574.00;;;27.49;49.66
63554;BME280;49699;48.072;7.800;2022-07-23T09:11:21;99570.59;;;27.34;49.80
63554;BME280;49699;48.072;7.800;2022-07-23T09:16:23;99572.38;;;27.26;49.64
63554;BME280;49699;48.072;7.800;2022-07-23T09:18:52;99573.38;;;27.25;49.50
63554;BME280;49699;48.072;7.800;2022-07-23T09:21:27;99573.16;;;27.20;49.66
63554;BME280;49699;48.072;7.800;2022-07-23T09:24:05;99574.19;;;27.19;49.65
63554;BME280;49699;48.072;7.800;2022-07-23T09:26:38;99571.88;;;27.16;49.35
63554;BME280;49699;48.072;7.800;2022-07-23T09:31:56;99572.75;;;27.23;49.00
63554;BME280;49699;48.072;7.800;2022-07-23T09:34:24;99574.47;;;27.31;49.05
63554;BME280;49699;48.072;7.800;2022-07-23T09:36:53;99570.06;;;27.45;48.65
63554;BME280;49699;48.072;7.800;2022-07-23T09:39:31;99565.53;;;27.67;48.25
63554;BME280;49699;48.072;7.800;2022-07-23T09:41:57;99565.41;;;27.81;47.80
63554;BME280;49699;48.072;7.800;2022-07-23T09:44:23;99570.56;;;28.11;46.93
63554;BME280;49699;48.072;7.800;2022-07-23T09:46:50;99566.56;;;28.34;46.15
63554;BME280;49699;48.072;7.800;2022-07-23T09:49:20;99567.50;;;28.61;45.38
63554;BME280;49699;48.072;7.800;2022-07-23T09:51:54;99569.06;;;28.97;44.95
63554;BME280;49699;48.072;7.800;2022-07-23T09:54:23;99575.47;;;29.22;44.42
63554;BME280;49699;48.072;7.800;2022-07-23T09:56:51;99571.19;;;29.48;43.73
63554;BME280;49699;48.072;7.800;2022-07-23T09:59:16;99583.53;;;29.62;43.19
63554;BME280;49699;48.072;7.800;2022-07-23T10:01:44;99576.72;;;29.73;42.96
63554;BME280;49699;48.072;7.800;2022-07-23T10:04:11;99575.06;;;29.78;42.57
63554;BME280;49699;48.072;7.800;2022-07-23T10:06:59;99581.22;;;29.92;42.20
63554;BME280;49699;48.072;7.800;2022-07-23T10:09:43;99590.72;;;30.08;41.92
63554;BME280;49699;48.072;7.800;2022-07-23T10:12:31;99590.44;;;30.29;41.20
63554;BME280;49699;48.072;7.800;2022-07-23T10:15:15;99583.19;;;30.36;40.71
63554;BME280;49699;48.072;7.800;2022-07-23T10:17:41;99586.47;;;30.45;40.77
63554;BME280;49699;48.072;7.800;2022-07-23T10:20:06;99589.06;;;30.64;39.92
63554;BME280;49699;48.072;7.800;2022-07-23T10:22:37;99591.75;;;30.71;40.09
63554;BME280;49699;48.072;7.800;2022-07-23T10:25:22;99586.22;;;30.59;40.06
63554;BME280;49699;48.072;7.800;2022-07-23T10:28:20;99587.09;;;30.40;40.15
63554;BME280;49699;48.072;7.800;2022-07-23T10:31:14;99582.16;;;30.30;40.30
63554;BME280;49699;48.072;7.800;2022-07-23T10:36:22;99580.84;;;30.53;39.22
63554;BME280;49699;48.072;7.800;2022-07-23T10:38:58;99575.19;;;30.74;39.09
63554;BME280;49699;48.072;7.800;2022-07-23T10:41:37;99572.19;;;30.95;38.67
63554;BME280;49699;48.072;7.800;2022-07-23T10:47:02;99568.91;;;31.18;38.02
63554;BME280;49699;48.072;7.800;2022-07-23T10:49:45;99572.06;;;31.15;37.53
63554;BME280;49699;48.072;7.800;2022-07-23T10:54:47;99580.47;;;31.50;37.06
63554;BME280;49699;48.072;7.800;2022-07-23T10:57:15;99577.38;;;31.71;36.60
63554;BME280;49699;48.072;7.800;2022-07-23T11:02:34;99576.97;;;32.11;35.41
63554;BME280;49699;48.072;7.800;2022-07-23T11:05:02;99573.19;;;32.19;34.79
63554;BME280;49699;48.072;7.800;2022-07-23T11:07:28;99586.03;;;32.17;34.52
63554;BME280;49699;48.072;7.800;2022-07-23T11:09:54;99582.38;;;32.11;34.19
63554;BME280;49699;48.072;7.800;2022-07-23T11:15:09;99581.94;;;32.32;34.01
63554;BME280;49699;48.072;7.800;2022-07-23T11:25:12;99574.72;;;32.63;33.41
63554;BME280;49699;48.072;7.800;2022-07-23T11:27:45;99571.69;;;32.59;33.35
63554;BME280;49699;48.072;7.800;2022-07-23T11:30:38;99571.19;;;32.62;33.50
63554;BME280;49699;48.072;7.800;2022-07-23T11:35:37;99568.09;;;32.47;33.67
63554;BME280;49699;48.072;7.800;2022-07-23T11:40:45;99566.63;;;32.33;34.13
63554;BME280;49699;48.072;7.800;2022-07-23T11:43:11;99563.31;;;32.31;34.05
63554;BME280;49699;48.072;7.800;2022-07-23T11:45:41;99568.84;;;32.36;34.39
63554;BME280;49699;48.072;7.800;2022-07-23T11:48:08;99565.34;;;32.35;34.41
63554;BME280;49699;48.072;7.800;2022-07-23T11:50:34;99565.91;;;32.56;34.48
63554;BME280;49699;48.072;7.800;2022-07-23T11:53:00;99575.41;;;32.76;34.41
63554;BME280;49699;48.072;7.800;2022-07-23T11:55:26;99566.16;;;32.84;34.04
63554;BME280;49699;48.072;7.800;2022-07-23T11:57:54;99564.06;;;32.86;33.98
63554;BME280;49699;48.072;7.800;2022-07-23T12:00:26;99563.16;;;32.92;34.26
63554;BME280;49699;48.072;7.800;2022-07-23T12:02:55;99563.97;;;32.93;33.79
63554;BME280;49699;48.072;7.800;2022-07-23T12:05:23;99559.81;;;32.78;34.46
63554;BME280;49699;48.072;7.800;2022-07-23T12:07:51;99569.22;;;32.58;34.79
63554;BME280;49699;48.072;7.800;2022-07-23T12:13:08;99562.09;;;32.08;35.77
63554;BME280;49699;48.072;7.800;2022-07-23T12:15:56;99566.38;;;31.98;35.88
63554;BME280;49699;48.072;7.800;2022-07-23T12:18:25;99567.47;;;31.90;36.05
63554;BME280;49699;48.072;7.800;2022-07-23T12:20:53;99561.97;;;32.03;36.23
63554;BME280;49699;48.072;7.800;2022-07-23T12:23:20;99551.13;;;32.28;35.93
63554;BME280;49699;48.072;7.800;2022-07-23T12:25:48;99555.13;;;32.56;35.30
63554;BME280;49699;48.072;7.800;2022-07-23T12:28:14;99546.75;;;32.94;35.06
63554;BME280;49699;48.072;7.800;2022-07-23T12:30:41;99543.09;;;33.30;34.12
63554;BME280;49699;48.072;7.800;2022-07-23T12:33:08;99548.97;;;33.62;33.67
63554;BME280;49699;48.072;7.800;2022-07-23T12:35:44;99550.28;;;33.83;33.23
63554;BME280;49699;48.072;7.800;2022-07-23T12:38:14;99552.59;;;33.91;32.76
63554;BME280;49699;48.072;7.800;2022-07-23T12:43:09;99549.41;;;33.70;33.57
63554;BME280;49699;48.072;7.800;2022-07-23T12:45:49;99548.59;;;33.70;33.02
63554;BME280;49699;48.072;7.800;2022-07-23T12:48:22;99547.66;;;33.64;33.17
63554;BME280;49699;48.072;7.800;2022-07-23T12:50:57;99540.63;;;33.63;33.20
63554;BME280;49699;48.072;7.800;2022-07-23T12:53:26;99542.03;;;33.66;32.91
63554;BME280;49699;48.072;7.800;2022-07-23T12:56:09;99546.63;;;33.77;33.04
63554;BME280;49699;48.072;7.800;2022-07-23T13:01:37;99557.91;;;34.26;32.10
63554;BME280;49699;48.072;7.800;2022-07-23T13:04:10;99561.25;;;34.28;32.21
63554;BME280;49699;48.072;7.800;2022-07-23T13:06:42;99550.78;;;34.31;32.34
63554;BME280;49699;48.072;7.800;2022-07-23T13:09:09;99548.91;;;34.32;32.34
63554;BME280;49699;48.072;7.800;2022-07-23T13:11:35;99548.22;;;34.13;32.28
63554;BME280;49699;48.072;7.800;2022-07-23T13:14:01;99541.63;;;34.09;32.51
63554;BME280;49699;48.072;7.800;2022-07-23T13:16:28;99547.97;;;34.14;32.47
63554;BME280;49699;48.072;7.800;2022-07-23T13:18:54;99536.94;;;34.16;32.26
63554;BME280;49699;48.072;7.800;2022-07-23T13:21:21;99545.47;;;33.85;32.86
63554;BME280;49699;48.072;7.800;2022-07-23T13:23:47;99543.81;;;33.49;33.50
63554;BME280;49699;48.072;7.800;2022-07-23T13:26:12;99542.44;;;33.16;33.87
63554;BME280;49699;48.072;7.800;2022-07-23T13:28:38;99538.16;;;32.97;34.44
63554;BME280;49699;48.072;7.800;2022-07-23T13:31:03;99536.50;;;32.84;34.93
63554;BME280;49699;48.072;7.800;2022-07-23T13:33:29;99550.34;;;32.58;35.48
63554;BME280;49699;48.072;7.800;2022-07-23T13:35:55;99546.56;;;32.29;36.14
63554;BME280;49699;48.072;7.800;2022-07-23T13:38:21;99537.28;;;32.06;36.43
63554;BME280;49699;48.072;7.800;2022-07-23T13:40:49;99535.56;;;31.94;36.92
63554;BME280;49699;48.072;7.800;2022-07-23T13:43:17;99524.56;;;31.95;36.89
63554;BME280;49699;48.072;7.800;2022-07-23T13:45:44;99529.78;;;31.90;36.81